Time;durP1;ratioP1;P1;durP2;ratioP2;P2;SDS_P1;SDS_P2;PMS_P1;PMS_P2;Temp;Humidity;BMP_temperature;BMP_pressure;BME280_temperature;BME280_humidity;BME280_pressure;Samples;Min_cycle;Max_cycle;Signal;HPM_P1;HPM_P2
2023/08/18 00:00:46;;;;;;;11.63;11.13;;;;;;;;;;5065086;28;20025;-63
2023/08/18 00:03:12;;;;;;;11.35;10.85;;;;;;;;;;5071850;28;20536;-64
2023/08/18 00:05:37;;;;;;;11.27;10.77;;;;;;;;;;5073500;28;20016;-63
2023/08/18 00:08:02;;;;;;;11.60;11.10;;;;;;;;;;5073518;28;20070;-64
2023/08/18 00:10:28;;;;;;;11.60;11.10;;;;;;;;;;5073521;28;20625;-64
2023/08/18 00:12:53;;;;;;;11.70;11.20;;;;;;;;;;5071693;28;20024;-63
2023/08/18 00:15:18;;;;;;;11.70;11.20;;;;;;;;;;5073933;28;20025;-63
2023/08/18 00:17:44;;;;;;;11.50;11.00;;;;;;;;;;5074467;28;20257;-64
2023/08/18 00:20:09;;;;;;;11.82;11.32;;;;;;;;;;5072306;28;20539;-64
2023/08/18 00:22:34;;;;;;;11.40;10.90;;;;;;;;;;5075663;28;20023;-64
2023/08/18 00:25:00;;;;;;;11.48;10.98;;;;;;;;;;5073635;28;20024;-64
2023/08/18 00:27:25;;;;;;;11.25;10.75;;;;;;;;;;5073218;28;20012;-63
2023/08/18 00:29:50;;;;;;;11.38;10.88;;;;;;;;;;5070183;28;20488;-63
2023/08/18 00:32:16;;;;;;;11.13;10.63;;;;;;;;;;5072806;28;20544;-64
2023/08/18 00:34:41;;;;;;;11.40;10.90;;;;;;;;;;5077018;28;20020;-63
2023/08/18 00:37:06;;;;;;;11.43;10.93;;;;;;;;;;5073025;28;20036;-63
2023/08/18 00:39:31;;;;;;;11.45;10.95;;;;;;;;;;5072150;28;20024;-64
2023/08/18 00:41:57;;;;;;;11.55;11.05;;;;;;;;;;5072248;28;20020;-63
2023/08/18 00:44:22;;;;;;;11.43;10.93;;;;;;;;;;5073571;28;20104;-64
2023/08/18 00:46:48;;;;;;;11.48;10.98;;;;;;;;;;5072224;28;20047;-64
2023/08/18 00:49:14;;;;;;;11.20;10.70;;;;;;;;;;5071533;28;20048;-64
2023/08/18 00:51:41;;;;;;;11.40;10.90;;;;;;;;;;5074176;28;20027;-64
2023/08/18 00:54:06;;;;;;;11.50;11.00;;;;;;;;;;5073946;28;20042;-63
2023/08/18 00:56:32;;;;;;;11.38;10.88;;;;;;;;;;5069254;28;20021;-64
2023/08/18 00:58:58;;;;;;;11.55;11.05;;;;;;;;;;5073012;28;20183;-63
2023/08/18 01:01:24;;;;;;;11.20;10.70;;;;;;;;;;5077090;28;20020;-64
2023/08/18 01:03:49;;;;;;;11.45;10.95;;;;;;;;;;5071247;28;20036;-64
2023/08/18 01:06:15;;;;;;;11.60;11.10;;;;;;;;;;5072121;28;20025;-64
2023/08/18 01:08:40;;;;;;;11.60;11.10;;;;;;;;;;5072180;28;20024;-63
2023/08/18 01:11:20;;;;;;;11.30;10.80;;;;;;;;;;5072082;28;20423;-64
2023/08/18 01:14:02;;;;;;;11.48;10.98;;;;;;;;;;5073692;28;20494;-64
2023/08/18 01:16:28;;;;;;;11.40;10.90;;;;;;;;;;5072338;28;20025;-63
2023/08/18 01:18:54;;;;;;;11.68;11.18;;;;;;;;;;5072855;28;20021;-62
2023/08/18 01:21:21;;;;;;;11.50;11.00;;;;;;;;;;5070693;28;20020;-63
2023/08/18 01:23:46;;;;;;;11.43;10.93;;;;;;;;;;5069686;28;20100;-63
2023/08/18 01:26:11;;;;;;;11.63;11.13;;;;;;;;;;5074190;28;20182;-63
2023/08/18 01:28:36;;;;;;;11.43;10.93;;;;;;;;;;5072174;28;20272;-64
2023/08/18 01:31:10;;;;;;;11.57;11.07;;;;;;;;;;5070365;28;20165;-64
2023/08/18 01:33:36;;;;;;;11.33;10.83;;;;;;;;;;5071683;28;20101;-63
2023/08/18 01:36:11;;;;;;;11.65;11.15;;;;;;;;;;5074870;28;20756;-63
2023/08/18 01:38:37;;;;;;;11.57;11.07;;;;;;;;;;5070856;28;20055;-64
2023/08/18 01:41:05;;;;;;;11.70;11.20;;;;;;;;;;5072717;28;20384;-63
2023/08/18 01:43:31;;;;;;;11.50;11.00;;;;;;;;;;5072175;28;20044;-63
2023/08/18 01:45:57;;;;;;;11.60;11.10;;;;;;;;;;5070276;28;20488;-63
2023/08/18 01:48:22;;;;;;;11.55;11.05;;;;;;;;;;5071005;28;20027;-63
2023/08/18 01:50:47;;;;;;;11.32;10.82;;;;;;;;;;5072169;28;20112;-63
2023/08/18 01:53:13;;;;;;;11.48;10.98;;;;;;;;;;5070065;28;20111;-64
2023/08/18 01:55:38;;;;;;;11.07;10.57;;;;;;;;;;5073077;28;20035;-64
2023/08/18 01:58:03;;;;;;;11.27;10.77;;;;;;;;;;5073766;28;20021;-64
2023/08/18 02:00:29;;;;;;;11.80;11.30;;;;;;;;;;5073228;28;20072;-64
2023/08/18 02:02:54;;;;;;;11.63;11.13;;;;;;;;;;5070800;28;20510;-63
2023/08/18 02:05:19;;;;;;;11.63;11.13;;;;;;;;;;5071357;28;20468;-63
2023/08/18 02:07:44;;;;;;;11.35;10.85;;;;;;;;;;5069371;28;20047;-63
2023/08/18 02:10:10;;;;;;;11.85;11.35;;;;;;;;;;5071126;28;20497;-64
2023/08/18 02:12:35;;;;;;;11.50;11.00;;;;;;;;;;5074001;28;20039;-64
2023/08/18 02:15:00;;;;;;;11.50;11.00;;;;;;;;;;5073782;28;20499;-63
2023/08/18 02:17:29;;;;;;;11.18;10.68;;;;;;;;;;5071535;28;20059;-63
2023/08/18 02:19:54;;;;;;;11.45;10.95;;;;;;;;;;5070841;28;20032;-63
2023/08/18 02:22:20;;;;;;;11.45;10.95;;;;;;;;;;5054764;28;20502;-64
2023/08/18 02:24:45;;;;;;;12.00;11.50;;;;;;;;;;5073852;28;20041;-64
2023/08/18 02:27:10;;;;;;;11.82;11.32;;;;;;;;;;5069432;28;20682;-63
2023/08/18 02:29:36;;;;;;;11.63;11.13;;;;;;;;;;5072248;28;20033;-64
2023/08/18 02:32:01;;;;;;;11.55;11.05;;;;;;;;;;5068964;28;20726;-63
2023/08/18 02:34:26;;;;;;;11.85;11.35;;;;;;;;;;5050138;28;20032;-64
2023/08/18 02:36:52;;;;;;;11.68;11.18;;;;;;;;;;5069916;28;20043;-63
2023/08/18 02:39:17;;;;;;;11.90;11.40;;;;;;;;;;5073787;28;20020;-63
2023/08/18 02:41:42;;;;;;;11.35;10.85;;;;;;;;;;5070340;28;20021;-63
2023/08/18 02:44:07;;;;;;;11.35;10.85;;;;;;;;;;5069986;28;20016;-63
2023/08/18 02:46:33;;;;;;;11.30;10.80;;;;;;;;;;5069398;28;20108;-63
2023/08/18 02:48:58;;;;;;;11.38;10.88;;;;;;;;;;5069846;28;20171;-63
2023/08/18 02:51:23;;;;;;;11.25;10.75;;;;;;;;;;5070706;28;20383;-63
2023/08/18 02:53:50;;;;;;;11.55;11.05;;;;;;;;;;5069205;28;20024;-63
2023/08/18 02:56:15;;;;;;;11.32;10.82;;;;;;;;;;5072636;28;20024;-64
2023/08/18 02:58:41;;;;;;;11.25;10.75;;;;;;;;;;5069894;28;20017;-64
2023/08/18 03:01:07;;;;;;;11.75;11.25;;;;;;;;;;5069214;28;20365;-63
2023/08/18 03:03:33;;;;;;;11.48;10.98;;;;;;;;;;5069491;28;20047;-64
2023/08/18 03:06:02;;;;;;;11.23;10.73;;;;;;;;;;5066507;28;20139;-64
2023/08/18 03:08:28;;;;;;;11.48;10.98;;;;;;;;;;5069690;28;20021;-64
2023/08/18 03:10:57;;;;;;;11.57;11.07;;;;;;;;;;5071050;28;20468;-63
2023/08/18 03:13:22;;;;;;;11.30;10.80;;;;;;;;;;5068825;28;20074;-63
2023/08/18 03:15:48;;;;;;;11.55;11.05;;;;;;;;;;5068486;28;20463;-62
2023/08/18 03:18:13;;;;;;;11.23;10.73;;;;;;;;;;5067486;28;20031;-63
2023/08/18 03:20:38;;;;;;;11.52;11.02;;;;;;;;;;5051286;28;20024;-64
2023/08/18 03:23:04;;;;;;;11.75;11.25;;;;;;;;;;5069303;28;20032;-64
2023/08/18 03:25:29;;;;;;;11.32;10.82;;;;;;;;;;5071722;28;20102;-63
2023/08/18 03:27:54;;;;;;;11.35;10.85;;;;;;;;;;5070296;28;20021;-63
2023/08/18 03:30:20;;;;;;;11.40;10.90;;;;;;;;;;5069187;28;20028;-63
2023/08/18 03:32:47;;;;;;;11.47;10.97;;;;;;;;;;5069109;28;20028;-64
2023/08/18 03:35:12;;;;;;;11.70;11.20;;;;;;;;;;5069440;28;20263;-63
2023/08/18 03:37:38;;;;;;;11.48;10.98;;;;;;;;;;5069847;28;20025;-64
2023/08/18 03:40:04;;;;;;;11.80;11.30;;;;;;;;;;5069459;28;20063;-64
2023/08/18 03:42:29;;;;;;;11.70;11.20;;;;;;;;;;5069901;28;20261;-64
2023/08/18 03:44:55;;;;;;;11.10;10.60;;;;;;;;;;5069335;28;20067;-63
2023/08/18 03:47:20;;;;;;;11.55;11.05;;;;;;;;;;5070020;28;20398;-63
2023/08/18 03:49:45;;;;;;;12.07;11.57;;;;;;;;;;5069528;28;20103;-64
2023/08/18 03:52:11;;;;;;;12.50;11.90;;;;;;;;;;5069844;28;20028;-63
2023/08/18 03:54:37;;;;;;;11.90;11.40;;;;;;;;;;5069090;28;20020;-64
2023/08/18 03:57:02;;;;;;;12.30;11.80;;;;;;;;;;5069352;28;20036;-64
2023/08/18 03:59:28;;;;;;;12.30;11.80;;;;;;;;;;5068653;28;20077;-64
2023/08/18 04:01:53;;;;;;;11.73;11.23;;;;;;;;;;5069239;28;20036;-64
2023/08/18 04:04:18;;;;;;;11.80;11.30;;;;;;;;;;5068365;28;20079;-63
2023/08/18 04:06:43;;;;;;;12.07;11.57;;;;;;;;;;5064803;28;20021;-65
2023/08/18 04:09:15;;;;;;;11.53;11.03;;;;;;;;;;5069235;28;20016;-62
2023/08/18 04:11:40;;;;;;;12.10;11.60;;;;;;;;;;5068315;28;20257;-64
2023/08/18 04:14:06;;;;;;;11.88;11.38;;;;;;;;;;5069194;28;20025;-64
2023/08/18 04:16:31;;;;;;;11.70;11.20;;;;;;;;;;5068557;28;20031;-64
2023/08/18 04:18:56;;;;;;;12.20;11.70;;;;;;;;;;5066800;28;20249;-64
2023/08/18 04:21:22;;;;;;;12.05;11.55;;;;;;;;;;5068899;28;20281;-63
2023/08/18 04:23:47;;;;;;;12.27;11.77;;;;;;;;;;5070381;28;20024;-65
2023/08/18 04:26:12;;;;;;;12.07;11.57;;;;;;;;;;5066253;28;20284;-64
2023/08/18 04:28:38;;;;;;;12.18;11.68;;;;;;;;;;5068129;28;20112;-64
2023/08/18 04:31:03;;;;;;;12.02;11.52;;;;;;;;;;5068073;28;20028;-64
2023/08/18 04:33:29;;;;;;;12.18;11.68;;;;;;;;;;5070954;28;20035;-64
2023/08/18 04:35:54;;;;;;;12.35;11.85;;;;;;;;;;5068534;28;20028;-64
2023/08/18 04:38:19;;;;;;;11.98;11.48;;;;;;;;;;5068623;28;20026;-64
2023/08/18 04:40:44;;;;;;;12.30;11.80;;;;;;;;;;5069724;28;20124;-63
2023/08/18 04:43:10;;;;;;;12.50;11.93;;;;;;;;;;5069837;28;20056;-64
2023/08/18 04:45:35;;;;;;;12.20;11.70;;;;;;;;;;5070454;28;20442;-63
2023/08/18 04:48:00;;;;;;;11.98;11.48;;;;;;;;;;5075245;28;20241;-64
2023/08/18 04:50:26;;;;;;;12.47;11.90;;;;;;;;;;5070596;28;20060;-65
2023/08/18 04:52:51;;;;;;;12.30;11.80;;;;;;;;;;5071843;28;20890;-64
2023/08/18 04:55:16;;;;;;;12.25;11.65;;;;;;;;;;5071340;28;20104;-64
2023/08/18 04:57:42;;;;;;;12.27;11.77;;;;;;;;;;5071390;28;20035;-65
2023/08/18 05:00:08;;;;;;;12.43;11.82;;;;;;;;;;5070121;28;20031;-64
2023/08/18 05:02:33;;;;;;;11.85;11.35;;;;;;;;;;5071531;28;20028;-65
2023/08/18 05:04:58;;;;;;;12.50;11.90;;;;;;;;;;5017893;28;1384434;-65
2023/08/18 05:07:24;;;;;;;12.43;11.90;;;;;;;;;;5073143;28;20021;-64
2023/08/18 05:09:49;;;;;;;12.10;11.60;;;;;;;;;;5071545;28;20067;-63
2023/08/18 05:12:14;;;;;;;12.03;11.53;;;;;;;;;;5071760;28;20538;-65
2023/08/18 05:14:40;;;;;;;11.98;11.48;;;;;;;;;;5074416;28;20293;-66
2023/08/18 05:17:05;;;;;;;12.27;11.77;;;;;;;;;;5071934;28;20024;-65
2023/08/18 05:19:30;;;;;;;12.20;11.70;;;;;;;;;;5071725;28;20744;-65
2023/08/18 05:21:56;;;;;;;12.57;11.97;;;;;;;;;;5072331;28;20021;-65
2023/08/18 05:24:21;;;;;;;12.17;11.67;;;;;;;;;;5072068;28;20024;-65
2023/08/18 05:26:46;;;;;;;12.03;11.53;;;;;;;;;;5073022;28;20066;-65
2023/08/18 05:29:11;;;;;;;12.27;11.77;;;;;;;;;;5068941;28;20249;-64
2023/08/18 05:31:37;;;;;;;12.20;11.70;;;;;;;;;;5072150;28;20028;-65
2023/08/18 05:34:03;;;;;;;12.02;11.52;;;;;;;;;;5070008;28;20040;-64
2023/08/18 05:36:28;;;;;;;12.32;11.82;;;;;;;;;;5070949;28;20055;-64
2023/08/18 05:38:53;;;;;;;12.33;11.83;;;;;;;;;;5071756;28;20021;-65
2023/08/18 05:41:18;;;;;;;12.73;12.13;;;;;;;;;;5071621;28;20113;-64
2023/08/18 05:43:44;;;;;;;12.30;11.80;;;;;;;;;;5071160;28;20046;-65
2023/08/18 05:46:09;;;;;;;12.63;12.03;;;;;;;;;;5070562;28;20032;-64
2023/08/18 05:48:34;;;;;;;12.47;11.93;;;;;;;;;;5071469;28;20264;-65
2023/08/18 05:51:00;;;;;;;12.33;11.83;;;;;;;;;;5069238;28;20264;-65
2023/08/18 05:53:25;;;;;;;12.15;11.65;;;;;;;;;;5071555;28;20271;-65
2023/08/18 05:55:52;;;;;;;12.40;11.87;;;;;;;;;;5070010;28;20040;-64
2023/08/18 05:58:18;;;;;;;12.50;11.93;;;;;;;;;;5072796;28;20701;-64
2023/08/18 06:00:43;;;;;;;12.05;11.55;;;;;;;;;;5070502;28;20047;-65
2023/08/18 06:03:08;;;;;;;12.13;11.63;;;;;;;;;;5071360;28;20037;-65
2023/08/18 06:05:34;;;;;;;12.37;11.87;;;;;;;;;;5070780;28;20468;-65
2023/08/18 06:07:59;;;;;;;12.57;11.98;;;;;;;;;;5067842;28;20056;-65
2023/08/18 06:10:25;;;;;;;12.27;11.77;;;;;;;;;;5069927;28;20028;-64
2023/08/18 06:12:50;;;;;;;12.47;11.90;;;;;;;;;;5053720;28;20542;-65
2023/08/18 06:15:19;;;;;;;12.27;11.77;;;;;;;;;;5071285;28;20031;-64
2023/08/18 06:17:45;;;;;;;12.52;11.98;;;;;;;;;;5069419;28;20082;-64
2023/08/18 06:20:10;;;;;;;12.30;11.80;;;;;;;;;;5070297;28;20028;-65
2023/08/18 06:22:36;;;;;;;12.30;11.80;;;;;;;;;;5071433;28;20047;-65
2023/08/18 06:25:02;;;;;;;12.25;11.75;;;;;;;;;;5070633;28;20476;-65
2023/08/18 06:27:28;;;;;;;12.15;11.65;;;;;;;;;;5070243;28;20016;-64
2023/08/18 06:29:53;;;;;;;12.10;11.60;;;;;;;;;;5054306;28;20027;-64
2023/08/18 06:32:18;;;;;;;12.47;11.93;;;;;;;;;;5070398;28;20070;-64
2023/08/18 06:34:43;;;;;;;12.13;11.63;;;;;;;;;;5070869;28;20032;-64
2023/08/18 06:37:09;;;;;;;12.67;12.07;;;;;;;;;;5067906;28;20059;-63
2023/08/18 06:39:35;;;;;;;12.48;11.90;;;;;;;;;;5071428;28;20033;-65
2023/08/18 06:42:00;;;;;;;12.30;11.80;;;;;;;;;;5070500;28;20452;-65
2023/08/18 06:44:25;;;;;;;12.87;12.27;;;;;;;;;;5071864;28;20301;-63
2023/08/18 06:46:51;;;;;;;12.23;11.73;;;;;;;;;;5070542;28;20559;-64
2023/08/18 06:49:16;;;;;;;12.63;12.03;;;;;;;;;;5070439;28;20020;-64
2023/08/18 06:51:41;;;;;;;12.27;11.77;;;;;;;;;;5068840;28;20348;-64
2023/08/18 06:54:07;;;;;;;12.17;11.67;;;;;;;;;;5070879;28;20026;-65
2023/08/18 06:56:32;;;;;;;12.05;11.55;;;;;;;;;;5069917;28;20333;-64
2023/08/18 06:58:58;;;;;;;11.73;11.23;;;;;;;;;;5067172;28;20055;-65
2023/08/18 07:01:24;;;;;;;12.13;11.63;;;;;;;;;;5070940;28;20025;-65
2023/08/18 07:03:49;;;;;;;12.25;11.75;;;;;;;;;;5069826;28;20055;-64
2023/08/18 07:06:15;;;;;;;12.33;11.83;;;;;;;;;;5070912;28;20024;-64
2023/08/18 07:08:40;;;;;;;12.20;11.70;;;;;;;;;;5068890;28;20588;-65
2023/08/18 07:11:05;;;;;;;12.43;11.90;;;;;;;;;;5069775;28;20022;-65
2023/08/18 07:13:31;;;;;;;12.80;12.20;;;;;;;;;;5069571;28;20300;-65
2023/08/18 07:15:56;;;;;;;12.07;11.57;;;;;;;;;;5070385;28;20422;-65
2023/08/18 07:18:21;;;;;;;11.90;11.40;;;;;;;;;;5070529;28;20048;-64
2023/08/18 07:20:47;;;;;;;12.30;11.80;;;;;;;;;;5069644;28;20448;-65
2023/08/18 07:23:12;;;;;;;12.20;11.70;;;;;;;;;;5070584;28;20025;-65
2023/08/18 07:25:39;;;;;;;12.15;11.65;;;;;;;;;;5071167;28;20629;-64
2023/08/18 07:28:05;;;;;;;12.32;11.82;;;;;;;;;;5068532;28;20028;-65
2023/08/18 07:30:30;;;;;;;12.70;12.10;;;;;;;;;;5069900;28;20035;-64
2023/08/18 07:32:56;;;;;;;12.38;11.85;;;;;;;;;;5068563;28;20013;-64
2023/08/18 07:35:22;;;;;;;12.07;11.57;;;;;;;;;;5069565;28;20365;-65
2023/08/18 07:37:47;;;;;;;12.23;11.73;;;;;;;;;;5069773;28;20012;-65
2023/08/18 07:40:12;;;;;;;12.23;11.73;;;;;;;;;;5069133;28;20174;-64
2023/08/18 07:42:39;;;;;;;12.10;11.60;;;;;;;;;;5069545;28;20506;-64
2023/08/18 07:45:04;;;;;;;12.00;11.50;;;;;;;;;;5069557;28;20028;-64
2023/08/18 07:47:30;;;;;;;12.07;11.57;;;;;;;;;;5071024;28;20036;-65
2023/08/18 07:49:56;;;;;;;12.07;11.57;;;;;;;;;;5068544;28;20055;-65
2023/08/18 07:52:21;;;;;;;12.05;11.55;;;;;;;;;;5069635;28;20032;-63
2023/08/18 07:54:46;;;;;;;11.87;11.37;;;;;;;;;;5069686;28;20502;-64
2023/08/18 07:57:12;;;;;;;12.07;11.57;;;;;;;;;;5069348;28;20031;-64
2023/08/18 07:59:37;;;;;;;12.00;11.50;;;;;;;;;;5069463;28;20337;-63
2023/08/18 08:02:02;;;;;;;12.20;11.70;;;;;;;;;;5067099;28;20016;-65
2023/08/18 08:04:28;;;;;;;12.00;11.50;;;;;;;;;;5068994;28;20265;-65
2023/08/18 08:06:56;;;;;;;12.03;11.53;;;;;;;;;;5064225;28;20028;-64
2023/08/18 08:09:21;;;;;;;12.13;11.63;;;;;;;;;;5066120;28;20272;-64
2023/08/18 08:11:47;;;;;;;12.10;11.60;;;;;;;;;;5069403;28;20020;-64
2023/08/18 08:14:12;;;;;;;11.90;11.40;;;;;;;;;;5069945;28;20024;-64
2023/08/18 08:16:37;;;;;;;11.90;11.40;;;;;;;;;;5073010;28;20249;-64
2023/08/18 08:19:04;;;;;;;11.60;11.10;;;;;;;;;;5072868;28;20572;-65
2023/08/18 08:21:30;;;;;;;11.75;11.25;;;;;;;;;;5073712;28;20662;-64
2023/08/18 08:23:55;;;;;;;12.18;11.68;;;;;;;;;;5071835;28;20013;-64
2023/08/18 08:26:20;;;;;;;12.07;11.57;;;;;;;;;;5072313;28;20031;-63
2023/08/18 08:28:46;;;;;;;11.83;11.33;;;;;;;;;;5071893;28;20024;-63
2023/08/18 08:31:11;;;;;;;12.20;11.70;;;;;;;;;;5070638;28;20257;-64
2023/08/18 08:33:37;;;;;;;12.20;11.70;;;;;;;;;;5072165;28;20025;-64
2023/08/18 08:36:02;;;;;;;12.18;11.68;;;;;;;;;;5072104;28;20395;-64
2023/08/18 08:38:28;;;;;;;12.10;11.60;;;;;;;;;;5072125;28;20082;-63
2023/08/18 08:40:55;;;;;;;11.80;11.30;;;;;;;;;;5072002;28;20043;-64
2023/08/18 08:43:20;;;;;;;12.00;11.50;;;;;;;;;;5072488;28;20020;-65
2023/08/18 08:45:46;;;;;;;12.25;11.75;;;;;;;;;;5072735;28;20008;-64
2023/08/18 08:48:11;;;;;;;12.23;11.73;;;;;;;;;;5072057;28;20364;-64
2023/08/18 08:50:40;;;;;;;12.30;11.80;;;;;;;;;;5072152;28;20040;-64
2023/08/18 08:53:06;;;;;;;12.15;11.65;;;;;;;;;;5071861;28;20020;-65
2023/08/18 08:55:33;;;;;;;11.93;11.43;;;;;;;;;;5072284;28;20027;-64
2023/08/18 08:57:58;;;;;;;12.00;11.50;;;;;;;;;;5070894;28;20732;-64
2023/08/18 09:00:24;;;;;;;11.80;11.30;;;;;;;;;;5072533;28;20024;-64
2023/08/18 09:02:49;;;;;;;12.00;11.50;;;;;;;;;;5072016;28;20017;-64
2023/08/18 09:05:14;;;;;;;11.82;11.32;;;;;;;;;;5070843;28;20032;-65
2023/08/18 09:07:40;;;;;;;11.65;11.15;;;;;;;;;;5072574;28;20017;-64
2023/08/18 09:10:06;;;;;;;11.65;11.15;;;;;;;;;;5072513;28;20035;-63
2023/08/18 09:12:32;;;;;;;11.65;11.15;;;;;;;;;;5073910;28;20043;-64
2023/08/18 09:14:58;;;;;;;12.00;11.50;;;;;;;;;;5071329;28;20028;-63
2023/08/18 09:17:26;;;;;;;11.60;11.10;;;;;;;;;;5073549;28;20391;-63
2023/08/18 09:19:54;;;;;;;11.70;11.20;;;;;;;;;;5072029;28;20024;-64
2023/08/18 09:22:23;;;;;;;11.80;11.30;;;;;;;;;;5071784;28;20063;-64
2023/08/18 09:24:49;;;;;;;11.80;11.30;;;;;;;;;;5054307;28;20024;-64
2023/08/18 09:27:15;;;;;;;11.77;11.27;;;;;;;;;;5073119;28;20757;-63
2023/08/18 09:29:40;;;;;;;11.67;11.17;;;;;;;;;;5071950;28;20024;-64
2023/08/18 09:32:08;;;;;;;11.70;11.20;;;;;;;;;;5073074;28;20273;-64
2023/08/18 09:34:52;;;;;;;11.95;11.45;;;;;;;;;;5070151;28;20100;-64
2023/08/18 09:37:18;;;;;;;11.98;11.48;;;;;;;;;;5071923;28;20036;-64
2023/08/18 09:39:43;;;;;;;11.65;11.15;;;;;;;;;;5069798;28;20029;-65
2023/08/18 09:42:09;;;;;;;11.70;11.20;;;;;;;;;;5072177;28;20069;-64
2023/08/18 09:44:35;;;;;;;11.70;11.20;;;;;;;;;;5070746;28;20040;-64
2023/08/18 09:47:02;;;;;;;11.68;11.18;;;;;;;;;;5071940;28;20021;-64
2023/08/18 09:49:31;;;;;;;11.90;11.40;;;;;;;;;;5069508;28;20020;-64
2023/08/18 09:52:04;;;;;;;11.95;11.45;;;;;;;;;;5071617;28;20023;-64
2023/08/18 09:54:50;;;;;;;11.50;11.00;;;;;;;;;;5069827;28;20073;-64
2023/08/18 09:57:27;;;;;;;11.70;11.20;;;;;;;;;;5070512;28;20032;-64
2023/08/18 09:59:56;;;;;;;11.70;11.20;;;;;;;;;;5070087;28;20067;-65
2023/08/18 10:02:22;;;;;;;11.45;10.95;;;;;;;;;;5071495;28;20400;-64
2023/08/18 10:04:48;;;;;;;11.93;11.43;;;;;;;;;;5052993;28;20055;-64
2023/08/18 10:07:15;;;;;;;11.75;11.25;;;;;;;;;;5069780;28;20021;-64
2023/08/18 10:09:41;;;;;;;11.63;11.13;;;;;;;;;;5071165;28;20024;-64
2023/08/18 10:12:06;;;;;;;11.77;11.27;;;;;;;;;;5072234;28;20253;-64
2023/08/18 10:14:32;;;;;;;12.05;11.55;;;;;;;;;;5073454;28;20123;-65
2023/08/18 10:16:59;;;;;;;12.00;11.50;;;;;;;;;;5070346;28;20122;-64
2023/08/18 10:20:00;;;;;;;11.73;11.23;;;;;;;;;;5070608;28;20017;-65
2023/08/18 10:22:26;;;;;;;11.73;11.23;;;;;;;;;;5030598;28;20512;-65
2023/08/18 10:24:52;;;;;;;12.02;11.52;;;;;;;;;;5061270;28;20044;-64
2023/08/18 10:27:27;;;;;;;11.80;11.30;;;;;;;;;;5071318;28;20024;-63
2023/08/18 10:30:21;;;;;;;11.88;11.38;;;;;;;;;;5071057;28;20067;-65
2023/08/18 10:32:46;;;;;;;11.85;11.35;;;;;;;;;;5070180;28;20056;-64
2023/08/18 10:35:22;;;;;;;11.93;11.43;;;;;;;;;;5066632;28;20468;-64
2023/08/18 10:37:50;;;;;;;11.95;11.45;;;;;;;;;;5069851;28;20264;-63
2023/08/18 10:40:26;;;;;;;11.75;11.25;;;;;;;;;;5069784;28;20051;-64
2023/08/18 10:42:52;;;;;;;11.82;11.32;;;;;;;;;;5073387;28;20139;-64
2023/08/18 10:45:28;;;;;;;12.20;11.70;;;;;;;;;;5070639;28;20054;-63
2023/08/18 10:47:57;;;;;;;11.75;11.25;;;;;;;;;;5068960;28;20029;-63
2023/08/18 10:50:23;;;;;;;11.85;11.35;;;;;;;;;;5069834;28;20025;-64
2023/08/18 10:52:50;;;;;;;12.00;11.50;;;;;;;;;;5069625;28;20555;-65
2023/08/18 10:55:15;;;;;;;11.90;11.40;;;;;;;;;;5068290;28;20033;-63
2023/08/18 10:57:42;;;;;;;11.83;11.33;;;;;;;;;;5069213;28;20020;-65
2023/08/18 11:00:11;;;;;;;12.05;11.55;;;;;;;;;;5069143;28;20292;-65
2023/08/18 11:02:39;;;;;;;11.93;11.43;;;;;;;;;;5070027;28;20013;-64
2023/08/18 11:05:05;;;;;;;11.80;11.30;;;;;;;;;;5069934;28;20029;-64
2023/08/18 11:07:31;;;;;;;11.75;11.25;;;;;;;;;;5069629;28;20107;-65
2023/08/18 11:09:56;;;;;;;11.65;11.15;;;;;;;;;;5070889;28;20099;-65
2023/08/18 11:12:21;;;;;;;11.75;11.25;;;;;;;;;;5069770;28;20016;-64
2023/08/18 11:14:47;;;;;;;11.90;11.40;;;;;;;;;;5070338;28;20024;-64
2023/08/18 11:17:12;;;;;;;11.70;11.20;;;;;;;;;;5066884;28;20028;-63
2023/08/18 11:19:38;;;;;;;11.55;11.05;;;;;;;;;;5070937;28;20024;-64
2023/08/18 11:22:04;;;;;;;11.88;11.38;;;;;;;;;;5070670;28;20070;-64
2023/08/18 11:24:30;;;;;;;11.68;11.18;;;;;;;;;;5068612;28;20020;-64
2023/08/18 11:26:56;;;;;;;11.70;11.20;;;;;;;;;;5070286;28;20013;-64
2023/08/18 11:29:22;;;;;;;11.25;10.75;;;;;;;;;;5069520;28;20115;-63
2023/08/18 11:31:47;;;;;;;11.70;11.20;;;;;;;;;;5069828;28;20099;-65
2023/08/18 11:34:12;;;;;;;11.60;11.10;;;;;;;;;;5068626;28;20671;-64
2023/08/18 11:36:38;;;;;;;11.63;11.13;;;;;;;;;;5069715;28;20020;-64
2023/08/18 11:39:07;;;;;;;11.68;11.18;;;;;;;;;;5069469;28;20028;-64
2023/08/18 11:41:39;;;;;;;11.52;11.02;;;;;;;;;;5069557;28;20032;-64
2023/08/18 11:44:08;;;;;;;11.48;10.98;;;;;;;;;;5070139;28;20091;-63
2023/08/18 11:46:37;;;;;;;11.65;11.15;;;;;;;;;;5068263;28;20024;-64
2023/08/18 11:49:12;;;;;;;11.77;11.27;;;;;;;;;;5067341;28;20484;-65
2023/08/18 11:51:53;;;;;;;11.77;11.27;;;;;;;;;;5070392;28;20120;-65
2023/08/18 11:54:18;;;;;;;11.70;11.20;;;;;;;;;;5067779;28;20031;-64
2023/08/18 11:56:43;;;;;;;11.35;10.85;;;;;;;;;;5067932;28;20017;-65
2023/08/18 11:59:17;;;;;;;11.50;11.00;;;;;;;;;;5069076;28;20031;-65
2023/08/18 12:01:42;;;;;;;;;;;;;;;;;;5068436;28;20431;-64
2023/08/18 12:04:11;;;;;;;11.57;11.07;;;;;;;;;;5069787;28;19951;-65
2023/08/18 12:06:36;;;;;;;11.80;11.30;;;;;;;;;;5065945;28;20099;-64
2023/08/18 12:09:05;;;;;;;11.60;11.10;;;;;;;;;;5069689;28;20547;-64
2023/08/18 12:11:30;;;;;;;11.60;11.10;;;;;;;;;;5069343;28;20257;-64
2023/08/18 12:13:56;;;;;;;11.40;10.90;;;;;;;;;;5069950;28;20082;-64
2023/08/18 12:16:21;;;;;;;11.60;11.10;;;;;;;;;;5069492;28;20024;-63
2023/08/18 12:18:46;;;;;;;12.07;11.57;;;;;;;;;;5068720;28;20107;-64
2023/08/18 12:21:12;;;;;;;11.60;11.10;;;;;;;;;;5067580;28;20273;-63
2023/08/18 12:23:37;;;;;;;11.93;11.43;;;;;;;;;;5067439;28;20363;-63
2023/08/18 12:26:03;;;;;;;11.65;11.15;;;;;;;;;;5069935;28;20021;-64
2023/08/18 12:28:32;;;;;;;11.52;11.02;;;;;;;;;;5070489;28;20146;-65
2023/08/18 12:30:57;;;;;;;11.63;11.13;;;;;;;;;;5071850;28;20020;-65
2023/08/18 12:33:25;;;;;;;11.45;10.95;;;;;;;;;;5068989;28;20033;-64
2023/08/18 12:35:50;;;;;;;11.60;11.10;;;;;;;;;;5069276;28;20031;-64
2023/08/18 12:38:15;;;;;;;11.43;10.93;;;;;;;;;;5068280;28;20028;-65
2023/08/18 12:40:41;;;;;;;11.57;11.07;;;;;;;;;;5067755;28;20036;-64
2023/08/18 12:43:08;;;;;;;11.65;11.15;;;;;;;;;;5067747;28;20024;-65
2023/08/18 12:45:34;;;;;;;11.73;11.23;;;;;;;;;;5069634;28;20032;-64
2023/08/18 12:47:59;;;;;;;11.73;11.23;;;;;;;;;;5068596;28;20156;-64
2023/08/18 12:50:25;;;;;;;12.00;11.50;;;;;;;;;;5069387;28;20028;-65
2023/08/18 12:52:50;;;;;;;11.77;11.27;;;;;;;;;;5067700;28;20023;-65
2023/08/18 12:55:15;;;;;;;11.73;11.23;;;;;;;;;;5066788;28;20454;-65
2023/08/18 12:57:41;;;;;;;11.85;11.35;;;;;;;;;;5071295;28;20263;-65
2023/08/18 13:00:06;;;;;;;11.65;11.15;;;;;;;;;;5068434;28;20048;-63
2023/08/18 13:02:31;;;;;;;11.48;10.98;;;;;;;;;;5072426;28;20033;-64
2023/08/18 13:04:57;;;;;;;12.07;11.57;;;;;;;;;;5072215;28;20037;-64
2023/08/18 13:07:22;;;;;;;11.90;11.40;;;;;;;;;;5072189;28;20261;-64
2023/08/18 13:09:47;;;;;;;11.50;11.00;;;;;;;;;;5072041;28;20017;-64
2023/08/18 13:12:13;;;;;;;11.67;11.17;;;;;;;;;;5072862;28;20024;-65
2023/08/18 13:14:38;;;;;;;11.40;10.90;;;;;;;;;;5072637;28;20258;-64
2023/08/18 13:17:03;;;;;;;11.57;11.07;;;;;;;;;;5071866;28;20320;-65
2023/08/18 13:19:30;;;;;;;11.68;11.18;;;;;;;;;;5071702;28;20253;-65
2023/08/18 13:21:55;;;;;;;11.68;11.18;;;;;;;;;;5067993;28;20102;-64
2023/08/18 13:24:21;;;;;;;11.60;11.10;;;;;;;;;;5072076;28;20487;-66
2023/08/18 13:26:46;;;;;;;11.63;11.13;;;;;;;;;;5074821;28;20024;-64
2023/08/18 13:29:11;;;;;;;11.75;11.25;;;;;;;;;;5073985;28;20043;-65
2023/08/18 13:31:37;;;;;;;11.88;11.38;;;;;;;;;;5071466;28;20047;-65
2023/08/18 13:34:02;;;;;;;11.40;10.90;;;;;;;;;;5068174;28;20479;-64
2023/08/18 13:36:28;;;;;;;11.45;10.95;;;;;;;;;;5071858;28;20487;-66
2023/08/18 13:38:53;;;;;;;11.75;11.25;;;;;;;;;;5071818;28;20028;-64
2023/08/18 13:41:18;;;;;;;11.68;11.18;;;;;;;;;;5071047;28;20027;-64
2023/08/18 13:43:45;;;;;;;11.50;11.00;;;;;;;;;;5070444;28;20016;-65
2023/08/18 13:46:10;;;;;;;11.75;11.25;;;;;;;;;;5066039;28;20030;-64
2023/08/18 13:48:36;;;;;;;11.85;11.35;;;;;;;;;;5069605;28;20103;-64
2023/08/18 13:51:01;;;;;;;11.88;11.38;;;;;;;;;;5066865;28;20032;-64
2023/08/18 13:53:29;;;;;;;11.77;11.27;;;;;;;;;;5070501;28;20033;-65
2023/08/18 13:55:54;;;;;;;11.43;10.93;;;;;;;;;;5070944;28;20266;-65
2023/08/18 13:58:20;;;;;;;12.05;11.55;;;;;;;;;;5071240;28;20376;-64
2023/08/18 14:00:45;;;;;;;11.60;11.10;;;;;;;;;;5070340;28;20024;-65
2023/08/18 14:03:10;;;;;;;11.37;10.87;;;;;;;;;;5070649;28;20277;-64
2023/08/18 14:05:40;;;;;;;11.93;11.43;;;;;;;;;;5049367;28;20049;-64
2023/08/18 14:08:05;;;;;;;11.60;11.10;;;;;;;;;;5054902;28;20056;-63
2023/08/18 14:10:31;;;;;;;11.70;11.20;;;;;;;;;;5053917;28;20029;-64